createdAt,value
2022-10-08T00:01:25.612Z,68.20
2022-10-08T00:03:53.906Z,68.20
2022-10-08T00:06:23.540Z,68.40
2022-10-08T00:08:53.668Z,68.50
2022-10-08T00:11:24.592Z,68.50
2022-10-08T00:13:53.024Z,68.50
2022-10-08T00:16:24.646Z,68.50
2022-10-08T00:18:53.662Z,68.60
2022-10-08T00:21:24.110Z,68.70
2022-10-08T00:23:52.101Z,68.60
2022-10-08T00:26:23.677Z,68.70
2022-10-08T00:28:52.827Z,68.70
2022-10-08T00:31:23.973Z,68.80
2022-10-08T00:33:53.157Z,68.70
2022-10-08T00:36:20.251Z,68.80
2022-10-08T00:38:47.220Z,68.80
2022-10-08T00:41:21.006Z,69.00
2022-10-08T00:43:50.725Z,69.10
2022-10-08T00:46:37.267Z,69.10
2022-10-08T00:49:16.923Z,69.20
2022-10-08T00:51:52.163Z,69.20
2022-10-08T00:54:21.094Z,69.20
2022-10-08T00:56:51.293Z,69.40
2022-10-08T00:59:18.552Z,69.70
2022-10-08T01:01:45.550Z,69.90
2022-10-08T01:04:13.409Z,70.20
2022-10-08T01:07:05.708Z,70.40
2022-10-08T01:09:38.803Z,70.70
2022-10-08T01:12:23.980Z,71.00
2022-10-08T01:14:56.897Z,71.30
2022-10-08T01:17:26.452Z,71.50
2022-10-08T01:20:04.796Z,71.70
2022-10-08T01:22:50.308Z,71.90
2022-10-08T01:25:37.818Z,71.80
2022-10-08T01:28:34.910Z,72.20
2022-10-08T01:31:19.060Z,72.20
2022-10-08T01:33:51.581Z,72.30
2022-10-08T01:36:20.887Z,72.60
2022-10-08T01:38:58.429Z,72.70
2022-10-08T01:41:27.339Z,73.00
2022-10-08T01:44:01.601Z,73.10
2022-10-08T01:46:31.776Z,73.20
2022-10-08T01:49:04.670Z,74.10
2022-10-08T01:51:41.895Z,73.50
2022-10-08T01:54:13.280Z,73.50
2022-10-08T01:56:41.388Z,73.60
2022-10-08T01:59:19.537Z,73.70
2022-10-08T02:01:56.372Z,73.80
2022-10-08T02:04:36.886Z,73.90
2022-10-08T02:07:23.301Z,74.00
2022-10-08T02:09:53.078Z,73.90
2022-10-08T02:12:23.059Z,74.00
2022-10-08T02:14:55.747Z,74.20
2022-10-08T02:17:27.028Z,74.40
2022-10-08T02:20:16.781Z,74.50
2022-10-08T02:23:25.454Z,74.30
2022-10-08T02:25:58.250Z,74.40
2022-10-08T02:28:49.454Z,74.60
2022-10-08T02:31:41.006Z,75.60
2022-10-08T02:34:48.463Z,75.00
2022-10-08T02:37:23.004Z,75.00
2022-10-08T02:39:54.958Z,75.00
2022-10-08T02:42:27.126Z,75.10
2022-10-08T02:45:23.256Z,75.20
2022-10-08T02:47:53.858Z,75.40
2022-10-08T02:50:24.608Z,75.40
2022-10-08T02:52:52.558Z,75.50
2022-10-08T02:55:41.953Z,75.60
2022-10-08T02:58:11.933Z,75.70
2022-10-08T03:00:52.357Z,75.90
2022-10-08T03:03:31.045Z,76.00
2022-10-08T03:06:00.252Z,76.20
2022-10-08T03:08:27.107Z,76.20
2022-10-08T03:10:54.246Z,76.30
2022-10-08T03:13:23.563Z,76.20
2022-10-08T03:15:53.578Z,76.50
2022-10-08T03:18:22.105Z,76.50
2022-10-08T03:20:51.771Z,76.50
2022-10-08T03:23:19.335Z,76.60
2022-10-08T03:25:46.243Z,76.60
2022-10-08T03:28:13.042Z,76.70
2022-10-08T03:30:39.988Z,76.80
2022-10-08T03:33:06.771Z,76.80
2022-10-08T03:35:33.578Z,76.90
2022-10-08T03:38:00.354Z,77.00
2022-10-08T03:40:27.159Z,77.10
2022-10-08T03:42:53.898Z,77.10
2022-10-08T03:45:20.608Z,77.20
2022-10-08T03:47:51.756Z,77.30
2022-10-08T03:50:19.798Z,77.30
2022-10-08T03:52:46.770Z,77.40
2022-10-08T03:55:13.845Z,77.40
2022-10-08T03:57:40.607Z,77.60
2022-10-08T04:00:08.057Z,77.50
2022-10-08T04:02:34.911Z,77.60
2022-10-08T04:05:01.739Z,77.80
2022-10-08T04:07:28.456Z,77.80
2022-10-08T04:09:55.133Z,77.90
2022-10-08T04:12:21.876Z,78.00
2022-10-08T04:14:48.653Z,78.00
2022-10-08T04:17:15.473Z,78.10
2022-10-08T04:19:42.199Z,78.20
2022-10-08T04:22:08.919Z,78.20
2022-10-08T04:24:35.601Z,78.20
2022-10-08T04:27:02.719Z,78.30
2022-10-08T04:29:29.468Z,78.40
2022-10-08T04:31:56.214Z,78.50
2022-10-08T04:34:22.990Z,78.50
2022-10-08T04:36:49.797Z,78.60
2022-10-08T04:39:16.557Z,78.70
2022-10-08T04:41:45.969Z,78.80
2022-10-08T04:44:12.774Z,78.90
2022-10-08T04:46:39.546Z,79.00
2022-10-08T04:49:06.353Z,79.10
2022-10-08T04:51:33.160Z,79.10
2022-10-08T04:54:01.749Z,79.10
2022-10-08T04:56:31.694Z,79.20
2022-10-08T04:59:01.595Z,79.40
2022-10-08T05:01:30.043Z,80.10
2022-10-08T05:03:58.515Z,79.40
2022-10-08T05:06:28.577Z,79.50
2022-10-08T05:08:57.102Z,79.60
2022-10-08T05:11:27.995Z,79.50
2022-10-08T05:13:56.427Z,79.70
2022-10-08T05:16:23.996Z,79.70
2022-10-08T05:18:52.139Z,80.00
2022-10-08T05:21:25.129Z,79.90
2022-10-08T05:24:03.409Z,80.00
2022-10-08T05:26:56.940Z,80.00
2022-10-08T05:29:20.103Z,80.00
2022-10-08T05:31:46.840Z,80.00
2022-10-08T05:34:14.945Z,80.10
2022-10-08T05:36:44.623Z,80.20
2022-10-08T05:39:11.869Z,80.30
2022-10-08T05:41:38.646Z,80.30
2022-10-08T05:44:06.500Z,80.40
2022-10-08T05:46:35.355Z,80.40
2022-10-08T05:49:04.078Z,80.60
2022-10-08T05:51:31.707Z,80.70
2022-10-08T05:54:00.025Z,81.40
2022-10-08T05:56:27.850Z,80.70
2022-10-08T05:58:54.806Z,80.50
2022-10-08T06:01:28.120Z,80.50
2022-10-08T06:03:57.500Z,80.70
2022-10-08T06:06:25.299Z,80.70
2022-10-08T06:08:58.714Z,80.70
2022-10-08T06:11:30.005Z,80.80
2022-10-08T06:13:58.598Z,80.90
2022-10-08T06:16:26.054Z,80.90
2022-10-08T06:18:53.240Z,80.80
2022-10-08T06:21:22.796Z,80.90
2022-10-08T06:23:51.865Z,80.90
2022-10-08T06:26:19.676Z,81.80
2022-10-08T06:28:46.476Z,81.00
2022-10-08T06:31:14.117Z,81.00
2022-10-08T06:33:41.167Z,81.10
2022-10-08T06:36:15.634Z,81.10
2022-10-08T06:38:42.927Z,81.10
2022-10-08T06:41:09.661Z,81.10
2022-10-08T06:43:36.552Z,81.10
2022-10-08T06:46:07.091Z,81.10
2022-10-08T06:48:34.186Z,81.20
2022-10-08T06:51:06.143Z,81.20
2022-10-08T06:53:33.253Z,81.30
2022-10-08T06:56:05.738Z,81.20
2022-10-08T06:58:35.251Z,81.10
2022-10-08T07:01:12.802Z,81.10
2022-10-08T07:03:39.775Z,81.10
2022-10-08T07:06:09.519Z,81.10
2022-10-08T07:08:39.559Z,81.00
2022-10-08T07:11:11.588Z,81.00
2022-10-08T07:13:39.353Z,81.00
2022-10-08T07:16:13.084Z,81.00
2022-10-08T07:18:42.226Z,81.00
2022-10-08T07:21:13.320Z,80.90
2022-10-08T07:23:40.611Z,81.00
2022-10-08T07:26:12.007Z,80.90
2022-10-08T07:28:41.725Z,80.80
2022-10-08T07:31:14.734Z,80.80
2022-10-08T07:33:42.028Z,80.70
2022-10-08T07:36:14.324Z,80.50
2022-10-08T07:38:44.191Z,80.50
2022-10-08T07:41:12.407Z,80.30
2022-10-08T07:43:43.317Z,80.30
2022-10-08T07:46:14.191Z,80.20
2022-10-08T07:48:40.991Z,80.00
2022-10-08T07:51:14.874Z,79.90
2022-10-08T07:53:42.779Z,79.90
2022-10-08T07:56:11.988Z,80.80
2022-10-08T07:58:41.682Z,80.70
2022-10-08T08:01:16.078Z,80.00
2022-10-08T08:03:44.105Z,78.30
2022-10-08T08:06:15.731Z,75.90
2022-10-08T08:08:44.439Z,74.00
2022-10-08T08:11:13.728Z,71.50
2022-10-08T08:13:41.811Z,70.00
2022-10-08T08:16:11.818Z,69.10
2022-10-08T08:18:41.399Z,68.50
2022-10-08T08:21:14.223Z,66.60
2022-10-08T08:23:44.233Z,65.80
2022-10-08T08:26:17.445Z,64.50
2022-10-08T08:28:44.337Z,63.70
2022-10-08T08:31:15.389Z,63.90
2022-10-08T08:33:43.035Z,64.00
2022-10-08T08:36:10.741Z,64.20
2022-10-08T08:38:38.477Z,64.40
2022-10-08T08:41:20.771Z,66.00
2022-10-08T08:43:48.259Z,66.00
2022-10-08T08:46:19.467Z,66.50
2022-10-08T08:48:46.788Z,66.80
2022-10-08T08:51:13.540Z,67.50
2022-10-08T08:53:43.496Z,67.80
2022-10-08T08:56:13.821Z,68.10
2022-10-08T08:58:50.489Z,67.80
2022-10-08T09:01:45.184Z,68.40
2022-10-08T09:04:41.647Z,68.00
2022-10-08T09:07:18.890Z,67.50
2022-10-08T09:09:50.982Z,66.90
2022-10-08T09:12:22.870Z,66.40
2022-10-08T09:14:54.551Z,66.30
2022-10-08T09:17:30.507Z,66.60
2022-10-08T09:19:57.498Z,66.20
2022-10-08T09:22:30.693Z,66.30
2022-10-08T09:25:00.586Z,65.50
2022-10-08T09:27:53.438Z,65.10
2022-10-08T09:30:31.339Z,65.10
2022-10-08T09:33:01.384Z,65.90
2022-10-08T09:35:28.618Z,65.60
2022-10-08T09:37:58.259Z,65.00
2022-10-08T09:40:28.240Z,65.20
2022-10-08T09:43:14.553Z,65.10
2022-10-08T09:45:45.241Z,65.10
2022-10-08T09:48:29.394Z,65.60
2022-10-08T09:51:08.405Z,65.80
2022-10-08T09:53:43.682Z,66.30
2022-10-08T09:56:12.693Z,66.10
2022-10-08T09:59:03.938Z,65.90
2022-10-08T10:01:31.640Z,65.70
2022-10-08T10:04:03.314Z,66.30
2022-10-08T10:06:39.185Z,64.80
2022-10-08T10:09:11.886Z,64.90
2022-10-08T10:11:48.087Z,64.70
2022-10-08T10:14:25.759Z,64.10
2022-10-08T10:17:02.797Z,63.80
2022-10-08T10:19:37.025Z,63.10
2022-10-08T10:22:11.639Z,63.10
2022-10-08T10:25:01.510Z,62.70
2022-10-08T10:27:41.857Z,62.80
2022-10-08T10:30:23.827Z,62.40
2022-10-08T10:33:07.209Z,62.20
2022-10-08T10:35:40.705Z,61.60
2022-10-08T10:38:33.222Z,61.50
2022-10-08T10:41:12.159Z,62.10
2022-10-08T10:43:44.844Z,61.80
2022-10-08T10:46:45.082Z,60.90
2022-10-08T10:49:23.420Z,60.60
2022-10-08T10:52:36.515Z,60.30
2022-10-08T10:55:20.537Z,60.10
2022-10-08T10:58:09.946Z,59.90
2022-10-08T11:00:49.372Z,60.10
2022-10-08T11:03:24.439Z,60.00
2022-10-08T11:06:11.883Z,59.90
2022-10-08T11:08:51.178Z,59.50
2022-10-08T11:11:33.286Z,59.40
2022-10-08T11:14:17.130Z,59.10
2022-10-08T11:17:03.893Z,58.90
2022-10-08T11:19:39.737Z,59.00
2022-10-08T11:22:12.318Z,58.80
2022-10-08T11:24:55.381Z,58.10
2022-10-08T11:27:31.117Z,58.20
2022-10-08T11:30:36.656Z,58.70
2022-10-08T11:33:05.550Z,58.20
2022-10-08T11:35:45.173Z,58.00
2022-10-08T11:38:40.738Z,58.10
2022-10-08T11:41:14.824Z,57.80
2022-10-08T11:43:57.790Z,57.90
2022-10-08T11:46:30.768Z,57.80
2022-10-08T11:49:13.770Z,57.90
2022-10-08T11:51:53.507Z,57.90
2022-10-08T11:54:34.394Z,58.30
2022-10-08T11:57:12.172Z,58.10
2022-10-08T11:59:48.096Z,57.60
2022-10-08T12:02:29.867Z,57.30
2022-10-08T12:05:00.379Z,57.70
2022-10-08T12:07:35.146Z,58.00
2022-10-08T12:10:08.983Z,58.50
2022-10-08T12:12:51.163Z,59.00
2022-10-08T12:15:24.342Z,58.70
2022-10-08T12:17:52.577Z,58.60
2022-10-08T12:20:22.867Z,58.30
2022-10-08T12:23:21.981Z,57.80
2022-10-08T12:26:01.182Z,57.80
2022-10-08T12:28:35.399Z,57.40
2022-10-08T12:31:15.380Z,57.00
2022-10-08T12:33:42.716Z,57.00
2022-10-08T12:36:30.790Z,56.70
2022-10-08T12:39:03.880Z,56.30
2022-10-08T12:41:40.163Z,55.80
2022-10-08T12:44:33.193Z,55.80
2022-10-08T12:47:20.243Z,55.90
2022-10-08T12:50:00.360Z,55.50
2022-10-08T12:52:32.804Z,55.30
2022-10-08T12:55:01.690Z,55.30
2022-10-08T12:57:41.371Z,54.70
2022-10-08T13:00:09.933Z,54.40
2022-10-08T13:02:41.147Z,54.60
2022-10-08T13:05:32.674Z,54.40
2022-10-08T13:07:59.552Z,54.00
2022-10-08T13:10:29.953Z,54.20
2022-10-08T13:13:04.391Z,54.50
2022-10-08T13:15:34.484Z,54.80
2022-10-08T13:18:13.715Z,54.90
2022-10-08T13:20:56.000Z,54.80
2022-10-08T13:23:26.439Z,55.00
2022-10-08T13:25:53.183Z,55.20
2022-10-08T13:28:41.879Z,55.20
2022-10-08T13:31:24.254Z,55.50
2022-10-08T13:33:51.432Z,55.90
2022-10-08T13:36:23.403Z,56.00
2022-10-08T13:38:50.489Z,55.60
2022-10-08T13:41:23.832Z,55.20
2022-10-08T13:43:50.882Z,55.00
2022-10-08T13:46:17.855Z,55.10
2022-10-08T13:48:45.197Z,54.90
2022-10-08T13:51:12.196Z,54.60
2022-10-08T13:53:42.188Z,54.10
2022-10-08T13:56:11.194Z,54.00
2022-10-08T13:58:37.971Z,54.00
2022-10-08T14:01:04.854Z,54.10
2022-10-08T14:03:31.815Z,54.20
2022-10-08T14:05:58.567Z,53.80
2022-10-08T14:08:29.928Z,53.60
2022-10-08T14:10:59.915Z,53.10
2022-10-08T14:13:26.950Z,53.10
2022-10-08T14:15:54.118Z,53.30
2022-10-08T14:18:20.919Z,53.30
2022-10-08T14:20:51.206Z,53.20
2022-10-08T14:23:19.056Z,52.90
2022-10-08T14:25:45.931Z,52.40
2022-10-08T14:28:12.754Z,52.20
2022-10-08T14:30:39.644Z,52.30
2022-10-08T14:33:10.918Z,52.30
2022-10-08T14:35:38.368Z,52.20
2022-10-08T14:38:05.185Z,51.90
2022-10-08T14:40:32.176Z,51.70
2022-10-08T14:42:58.925Z,51.70
2022-10-08T14:45:25.780Z,52.40
2022-10-08T14:47:52.499Z,52.30
2022-10-08T14:50:19.331Z,52.40
2022-10-08T14:52:47.344Z,52.70
2022-10-08T14:55:17.140Z,52.50
2022-10-08T14:57:44.088Z,52.80
2022-10-08T15:00:14.962Z,52.60
2022-10-08T15:02:41.713Z,52.50
2022-10-08T15:05:08.707Z,52.40
2022-10-08T15:07:35.611Z,52.30
2022-10-08T15:10:02.601Z,52.50
2022-10-08T15:12:29.276Z,52.40
2022-10-08T15:14:58.621Z,52.30
2022-10-08T15:17:25.460Z,51.90
2022-10-08T15:19:52.173Z,51.40
2022-10-08T15:22:18.986Z,51.00
2022-10-08T15:24:45.885Z,51.10
2022-10-08T15:27:15.202Z,51.30
2022-10-08T15:29:44.173Z,51.50
2022-10-08T15:32:11.049Z,51.70
2022-10-08T15:34:37.969Z,51.90
2022-10-08T15:37:04.699Z,52.00
2022-10-08T15:39:35.590Z,52.20
2022-10-08T15:42:02.800Z,52.30
2022-10-08T15:44:32.779Z,52.70
2022-10-08T15:47:02.691Z,52.90
2022-10-08T15:49:33.393Z,53.10
2022-10-08T15:52:00.988Z,53.20
2022-10-08T15:54:27.953Z,53.40
2022-10-08T15:56:55.039Z,53.50
2022-10-08T15:59:21.723Z,53.60
2022-10-08T16:01:51.637Z,53.60
2022-10-08T16:04:18.398Z,53.80
2022-10-08T16:06:45.618Z,53.90
2022-10-08T16:09:14.948Z,53.90
2022-10-08T16:11:42.787Z,54.00
2022-10-08T16:14:14.512Z,54.10
2022-10-08T16:16:41.962Z,54.30
2022-10-08T16:19:18.447Z,54.30
2022-10-08T16:21:47.964Z,54.40
2022-10-08T16:24:15.018Z,54.50
2022-10-08T16:26:43.080Z,54.70
2022-10-08T16:29:13.342Z,54.80
2022-10-08T16:31:42.332Z,55.00
2022-10-08T16:34:16.780Z,55.10
2022-10-08T16:36:44.304Z,55.30
2022-10-08T16:39:12.808Z,55.50
2022-10-08T16:41:40.018Z,56.30
2022-10-08T16:44:13.241Z,55.90
2022-10-08T16:46:44.964Z,56.00
2022-10-08T16:49:23.047Z,56.10
2022-10-08T16:51:51.717Z,56.20
2022-10-08T16:54:19.100Z,56.30
2022-10-08T16:56:46.685Z,56.40
2022-10-08T16:59:16.668Z,56.60
2022-10-08T17:01:45.702Z,56.70
2022-10-08T17:04:14.161Z,56.80
2022-10-08T17:06:41.324Z,56.90
2022-10-08T17:09:08.544Z,57.10
2022-10-08T17:11:35.771Z,57.10
2022-10-08T17:14:03.698Z,57.30
2022-10-08T17:16:31.455Z,57.40
2022-10-08T17:18:59.798Z,57.50
2022-10-08T17:21:27.758Z,57.70
2022-10-08T17:23:57.390Z,57.80
2022-10-08T17:26:25.362Z,57.90
2022-10-08T17:28:52.779Z,58.10
2022-10-08T17:31:22.704Z,58.20
2022-10-08T17:33:49.780Z,58.40
2022-10-08T17:36:20.701Z,58.40
2022-10-08T17:38:51.173Z,58.60
2022-10-08T17:41:20.681Z,58.70
2022-10-08T17:43:48.718Z,58.80
2022-10-08T17:46:17.890Z,58.90
2022-10-08T17:48:45.159Z,59.00
2022-10-08T17:51:14.909Z,59.10
2022-10-08T17:53:42.514Z,59.10
2022-10-08T17:56:11.345Z,59.20
2022-10-08T17:58:41.289Z,59.30
2022-10-08T18:01:14.988Z,59.40
2022-10-08T18:03:43.566Z,59.50
2022-10-08T18:06:12.204Z,59.60
2022-10-08T18:08:39.069Z,59.70
2022-10-08T18:11:09.043Z,59.80
2022-10-08T18:13:36.197Z,59.90
2022-10-08T18:16:08.228Z,60.00
2022-10-08T18:18:35.536Z,60.30
2022-10-08T18:21:03.410Z,61.20
2022-10-08T18:23:31.892Z,60.60
2022-10-08T18:26:19.902Z,60.70
2022-10-08T18:28:55.209Z,60.70
2022-10-08T18:31:25.353Z,61.00
2022-10-08T18:33:55.800Z,61.10
2022-10-08T18:36:27.605Z,61.30
2022-10-08T18:39:00.793Z,61.40
2022-10-08T18:41:30.730Z,61.70
2022-10-08T18:44:01.256Z,61.90
2022-10-08T18:46:28.665Z,61.90
2022-10-08T18:48:55.757Z,61.90
2022-10-08T18:51:25.349Z,62.10
2022-10-08T18:53:53.721Z,62.30
2022-10-08T18:56:25.359Z,62.40
2022-10-08T18:59:01.833Z,62.50
2022-10-08T19:01:38.421Z,62.60
2022-10-08T19:04:09.212Z,62.80
2022-10-08T19:06:38.236Z,62.80
2022-10-08T19:09:06.460Z,63.00
2022-10-08T19:11:47.793Z,63.10
2022-10-08T19:14:17.060Z,63.10
2022-10-08T19:16:45.102Z,64.10
2022-10-08T19:19:18.162Z,63.40
2022-10-08T19:21:45.622Z,63.40
2022-10-08T19:24:15.330Z,63.50
2022-10-08T19:26:42.442Z,63.70
2022-10-08T19:29:15.430Z,63.60
2022-10-08T19:31:42.605Z,63.70
2022-10-08T19:34:12.903Z,63.70
2022-10-08T19:36:41.531Z,63.60
2022-10-08T19:39:13.022Z,63.70
2022-10-08T19:41:41.351Z,63.80
2022-10-08T19:44:08.785Z,63.90
2022-10-08T19:46:35.951Z,64.00
2022-10-08T19:49:05.641Z,64.10
2022-10-08T19:51:33.487Z,64.00
2022-10-08T19:54:00.864Z,64.20
2022-10-08T19:56:28.933Z,64.20
2022-10-08T19:58:56.180Z,64.40
2022-10-08T20:01:29.041Z,64.50
2022-10-08T20:03:57.653Z,64.50
2022-10-08T20:06:26.824Z,64.60
2022-10-08T20:08:55.349Z,64.70
2022-10-08T20:11:22.264Z,64.80
2022-10-08T20:13:50.764Z,64.90
2022-10-08T20:16:20.299Z,65.00
2022-10-08T20:18:51.940Z,65.30
2022-10-08T20:21:29.059Z,65.40
2022-10-08T20:23:58.804Z,65.40
2022-10-08T20:26:33.347Z,65.40
2022-10-08T20:29:05.884Z,65.50
2022-10-08T20:31:39.100Z,65.40
2022-10-08T20:34:19.228Z,65.40
2022-10-08T20:36:49.999Z,65.30
2022-10-08T20:39:22.592Z,65.40
2022-10-08T20:41:49.765Z,65.60
2022-10-08T20:44:17.038Z,65.70
2022-10-08T20:46:44.466Z,65.90
2022-10-08T20:49:12.893Z,66.00
2022-10-08T20:51:41.143Z,66.00
2022-10-08T20:54:10.347Z,66.20
2022-10-08T20:56:40.792Z,66.30
2022-10-08T20:59:08.864Z,66.30
2022-10-08T21:01:39.024Z,66.30
2022-10-08T21:04:07.364Z,66.50
2022-10-08T21:06:46.090Z,66.50
2022-10-08T21:09:14.044Z,66.60
2022-10-08T21:11:41.365Z,66.40
2022-10-08T21:14:12.214Z,66.40
2022-10-08T21:16:40.300Z,66.40
2022-10-08T21:19:11.064Z,66.50
2022-10-08T21:21:38.085Z,66.50
2022-10-08T21:24:05.049Z,66.50
2022-10-08T21:26:34.352Z,66.50
2022-10-08T21:29:03.011Z,66.60
2022-10-08T21:31:32.066Z,66.80
2022-10-08T21:33:59.754Z,66.90
2022-10-08T21:36:31.203Z,67.00
2022-10-08T21:38:59.482Z,67.10
2022-10-08T21:41:32.120Z,67.10
2022-10-08T21:44:01.164Z,67.30
2022-10-08T21:46:31.286Z,67.30
2022-10-08T21:49:05.953Z,67.20
2022-10-08T21:51:33.714Z,67.30
2022-10-08T21:54:05.267Z,67.20
2022-10-08T21:56:34.026Z,67.30
2022-10-08T21:59:01.932Z,67.20
2022-10-08T22:01:44.256Z,67.30
2022-10-08T22:04:14.114Z,67.20
2022-10-08T22:06:44.000Z,67.50
2022-10-08T22:09:19.464Z,67.70
2022-10-08T22:11:53.040Z,67.70
2022-10-08T22:14:20.315Z,67.80
2022-10-08T22:16:47.775Z,67.80
2022-10-08T22:19:18.397Z,67.80
2022-10-08T22:21:45.324Z,68.00
2022-10-08T22:24:12.132Z,68.10
2022-10-08T22:26:42.552Z,68.10
2022-10-08T22:29:10.356Z,68.20
2022-10-08T22:31:38.022Z,68.30
2022-10-08T22:34:05.139Z,68.40
2022-10-08T22:36:33.772Z,68.50
2022-10-08T22:39:00.592Z,68.60
2022-10-08T22:41:36.785Z,68.60
2022-10-08T22:44:03.904Z,68.80
2022-10-08T22:46:34.635Z,68.90
2022-10-08T22:49:04.347Z,68.90
2022-10-08T22:51:31.595Z,69.00
2022-10-08T22:53:58.638Z,70.10
2022-10-08T22:56:28.653Z,70.20
2022-10-08T22:58:55.849Z,70.40
2022-10-08T23:01:25.081Z,70.40
2022-10-08T23:03:52.359Z,70.60
2022-10-08T23:06:20.603Z,70.50
2022-10-08T23:08:52.024Z,70.70
2022-10-08T23:11:19.117Z,70.80
2022-10-08T23:13:50.077Z,70.80
2022-10-08T23:16:17.082Z,70.90
2022-10-08T23:18:47.048Z,71.70
2022-10-08T23:21:16.436Z,71.00
2022-10-08T23:23:45.204Z,71.00
2022-10-08T23:26:12.427Z,71.20
2022-10-08T23:28:39.907Z,71.20
2022-10-08T23:31:07.940Z,71.20
2022-10-08T23:33:39.440Z,71.20
2022-10-08T23:36:12.325Z,71.40
2022-10-08T23:38:39.168Z,71.50
2022-10-08T23:41:08.204Z,71.40
2022-10-08T23:43:38.185Z,71.50
2022-10-08T23:46:07.268Z,71.70
2022-10-08T23:48:34.554Z,71.70
2022-10-08T23:51:01.652Z,71.60
2022-10-08T23:53:28.952Z,71.70
2022-10-08T23:55:55.897Z,71.90
2022-10-08T23:58:22.846Z,71.90
